< Cyclone 201914 2019 Season Cyclone 201919 >
Cyclone 201917 (Savannah)
General InformationTrack Information on Google MapsDetailed Wind InformationList of All Images || ResourceGoogle EarthGE AnimationAtom FeedGeoJSON
Detalied Best Track (Time Zone = UTC)
Year Month Day Hour Lat. Long. Pressure (hPa) Wind (kt) Class Image Chart
2019 3 8 00 -11.3 114.5 1006 25 2 Image --
2019 3 8 06 -11.7 114.1 1005 25 2 Image --
2019 3 9 00 -11.9 113.7 1005 25 2 Image --
2019 3 9 06 -12.0 113.4 1005 25 2 Image --
2019 3 9 12 -12.0 113.4 1007 25 2 Image --
2019 3 9 18 -12.2 113.0 1007 25 2 Image --
2019 3 10 00 -11.8 111.8 1005 30 2 Image --
2019 3 10 06 -12.0 110.3 1005 30 2 Image --
2019 3 10 12 -12.0 109.4 1005 30 2 Image --
2019 3 10 18 -11.7 108.2 1006 20 2 Image --
2019 3 11 00 -11.4 107.0 1006 20 2 Image --
2019 3 11 06 -10.9 105.3 1006 20 2 Image --
2019 3 11 12 -10.6 104.1 1006 25 2 Image --
2019 3 11 18 -10.3 103.3 1006 25 2 Image --
2019 3 12 00 -9.7 101.5 1007 25 2 Image --
2019 3 12 06 -9.2 100.3 1006 25 2 Image --
2019 3 12 12 -8.6 99.4 1004 25 2 Image --
2019 3 12 18 -8.4 98.6 1002 25 2 Image --
2019 3 13 00 -8.9 98.0 1002 25 2 Image --
2019 3 13 06 -9.6 97.6 1000 30 2 Image --
2019 3 13 12 -10.3 97.1 1002 30 2 Image --
2019 3 13 18 -10.8 96.9 1000 35 3 Image --
2019 3 14 00 -11.4 96.4 998 35 3 Image --
2019 3 14 06 -12.1 95.8 998 40 3 Image --
2019 3 14 12 -12.5 95.6 996 45 3 Image --
2019 3 14 18 -12.8 95.4 992 50 4 Image --
2019 3 15 00 -13.4 95.2 990 50 4 Image --
2019 3 15 06 -13.7 94.8 984 60 4 Image --
2019 3 15 12 -14.3 94.6 984 60 4 Image --
2019 3 15 18 -14.6 94.2 980 70 5 Image --
2019 3 16 00 -14.7 93.8 980 70 5 Image --
2019 3 16 06 -15.0 93.4 972 75 5 Image --
2019 3 16 12 -15.2 92.9 972 75 5 Image --
2019 3 16 18 -15.5 92.3 968 80 5 Image --
2019 3 17 00 -15.9 91.6 962 85 5 Image --
2019 3 17 06 -15.9 91.1 951 95 5 Image --
2019 3 17 12 -16.2 90.6 958 90 5 Image --
2019 3 17 18 -16.4 90.1 962 90 5 Image --
< Cyclone 201914 2019 Season Cyclone 201919 >

Help